Time;durP1;ratioP1;P1;durP2;ratioP2;P2;SDS_P1;SDS_P2;PMS_P1;PMS_P2;Temp;Humidity;BMP_temperature;BMP_pressure;BME280_temperature;BME280_humidity;BME280_pressure;Samples;Min_cycle;Max_cycle;Signal;HPM_P1;HPM_P2
2023/12/02 00:02:21;;;;;;;63.53;22.33;;;;;;;-142.57;100.00;57433.00;4959673;28;20549;-80
2023/12/02 00:04:48;;;;;;;55.70;22.33;;;;;;;-142.57;100.00;57269.28;4976644;28;20433;-81
2023/12/02 00:07:14;;;;;;;56.65;22.40;;;;;;;-142.57;100.00;57263.19;4977053;28;20031;-81
2023/12/02 00:09:39;;;;;;;55.83;22.17;;;;;;;-142.57;100.00;57240.97;4967698;28;20069;-79
2023/12/02 00:12:05;;;;;;;61.05;21.60;;;;;;;-142.57;100.00;57156.06;4994432;28;20090;-81
2023/12/02 00:14:31;;;;;;;57.63;21.88;;;;;;;-142.57;100.00;57143.94;4998018;28;20062;-79
2023/12/02 00:16:56;;;;;;;53.45;22.33;;;;;;;-142.57;100.00;57109.59;4995085;28;20050;-80
2023/12/02 00:19:22;;;;;;;51.55;22.42;;;;;;;-142.57;100.00;57079.28;4978770;28;20058;-80
2023/12/02 00:21:48;;;;;;;53.33;22.40;;;;;;;-142.57;100.00;57099.47;4975752;28;20037;-79
2023/12/02 00:24:14;;;;;;;55.35;21.58;;;;;;;-142.57;100.00;57093.41;4976293;28;20035;-82
2023/12/02 00:26:39;;;;;;;53.63;22.30;;;;;;;-142.57;100.00;56998.41;4975619;28;20049;-82
2023/12/02 00:29:06;;;;;;;46.65;19.65;;;;;;;-142.57;100.00;57055.00;4975964;28;20095;-81
2023/12/02 00:31:31;;;;;;;44.67;19.83;;;;;;;-142.57;100.00;56840.78;4976381;28;20039;-81
2023/12/02 00:33:57;;;;;;;44.97;19.10;;;;;;;-142.57;100.00;56812.47;4975607;28;20065;-81
2023/12/02 00:36:23;;;;;;;41.95;19.33;;;;;;;-142.57;100.00;56713.44;4976133;28;20545;-84
2023/12/02 00:38:49;;;;;;;39.78;17.90;;;;;;;-142.57;100.00;56721.53;4976101;28;20070;-78
2023/12/02 00:41:14;;;;;;;38.10;17.88;;;;;;;-142.57;100.00;56666.97;4978100;28;20042;-80
2023/12/02 00:43:40;;;;;;;33.13;16.33;;;;;;;-142.57;100.00;56610.38;4990686;28;20042;-79
2023/12/02 00:46:06;;;;;;;34.95;17.13;;;;;;;-142.57;100.00;56582.06;4991208;28;20025;-81
2023/12/02 00:48:32;;;;;;;32.08;16.70;;;;;;;-142.57;100.00;56547.72;4986465;28;20236;-81
2023/12/02 00:50:57;;;;;;;31.48;16.85;;;;;;;-142.57;100.00;56614.41;4968612;28;20066;-85
2023/12/02 00:53:23;;;;;;;34.08;17.05;;;;;;;-142.57;100.00;56594.19;4962778;28;20035;-78
2023/12/02 00:55:48;;;;;;;29.83;16.15;;;;;;;-142.57;100.00;56689.19;4966737;28;20086;-81
2023/12/02 00:58:14;;;;;;;31.98;16.10;;;;;;;-142.57;100.00;56648.78;4961837;28;20267;-80
2023/12/02 01:00:39;;;;;;;32.45;16.70;;;;;;;-142.57;100.00;56553.78;4959558;28;20445;-77
2023/12/02 01:03:05;;;;;;;28.48;15.80;;;;;;;-142.57;100.00;56533.56;4958024;28;20157;-82
2023/12/02 01:05:30;;;;;;;31.13;15.02;;;;;;;-142.57;100.00;56594.19;4959413;28;20034;-78
2023/12/02 01:07:56;;;;;;;24.90;13.52;;;;;;;-142.57;100.00;56527.50;4957798;28;20427;-77
2023/12/02 01:10:21;;;;;;;22.77;13.18;;;;;;;-142.57;100.00;56460.81;4958221;28;20051;-80
2023/12/02 01:12:47;;;;;;;25.95;14.38;;;;;;;-142.57;100.00;56418.38;4957968;28;20022;-85
2023/12/02 01:15:12;;;;;;;25.55;13.50;;;;;;;-142.57;100.00;56452.75;4965853;28;20118;-83
2023/12/02 01:17:38;;;;;;;24.60;14.38;;;;;;;-142.57;100.00;56456.78;4966360;28;20023;-80
2023/12/02 01:20:04;;;;;;;27.10;14.40;;;;;;;-142.57;100.00;56436.56;4990713;28;20041;-80
2023/12/02 01:22:30;;;;;;;26.02;14.13;;;;;;;-142.57;100.00;56460.81;4976154;28;20030;-81
2023/12/02 01:24:55;;;;;;;25.10;14.13;;;;;;;-142.57;100.00;56466.88;4959659;28;20057;-84
2023/12/02 01:27:21;;;;;;;31.33;15.95;;;;;;;-142.57;100.00;56458.81;4942208;28;20098;-80
2023/12/02 01:29:46;;;;;;;39.63;17.00;;;;;;;-142.57;100.00;56527.50;4954646;28;20450;-80
2023/12/02 01:32:12;;;;;;;34.70;16.95;;;;;;;-142.57;100.00;56571.97;4952868;28;20043;-80
2023/12/02 01:34:37;;;;;;;38.35;18.23;;;;;;;-142.57;100.00;56604.31;4959502;28;20031;-84
2023/12/02 01:37:03;;;;;;;30.38;15.80;;;;;;;-142.57;100.00;56586.13;4963652;28;20057;-81
2023/12/02 01:39:28;;;;;;;32.35;16.20;;;;;;;-142.57;100.00;56614.41;4955680;28;20032;-81
2023/12/02 01:41:57;;;;;;;33.95;18.00;;;;;;;-142.57;100.00;56723.53;4957569;28;20544;-80
2023/12/02 01:44:23;;;;;;;29.77;16.00;;;;;;;-142.57;100.00;56675.03;4972222;28;20118;-81
2023/12/02 01:46:48;;;;;;;32.38;17.08;;;;;;;-142.57;100.00;56658.88;4975243;28;20538;-85
2023/12/02 01:49:14;;;;;;;35.97;16.55;;;;;;;-142.57;100.00;56675.03;4954264;28;20042;-83
2023/12/02 01:51:40;;;;;;;31.02;15.75;;;;;;;-142.57;100.00;56539.63;4953696;28;20027;-83
2023/12/02 01:54:08;;;;;;;28.00;15.25;;;;;;;-142.57;100.00;56515.38;4950563;28;20051;-84
2023/12/02 01:56:34;;;;;;;31.35;15.70;;;;;;;-142.57;100.00;56561.88;4964019;28;20061;-84
2023/12/02 01:59:07;;;;;;;32.38;17.08;;;;;;;-142.57;100.00;56493.16;4945815;28;20450;-83
2023/12/02 02:01:32;;;;;;;33.50;15.68;;;;;;;-142.57;100.00;56582.06;4974900;28;20045;-81
2023/12/02 02:04:00;;;;;;;29.55;15.27;;;;;;;-142.57;100.00;56610.38;4971413;28;20031;-77
2023/12/02 02:06:26;;;;;;;32.40;16.30;;;;;;;-142.57;100.00;56592.19;4975295;28;20062;-84
2023/12/02 02:08:51;;;;;;;29.05;15.27;;;;;;;-142.57;100.00;56614.41;4971966;28;20054;-78
2023/12/02 02:11:17;;;;;;;30.80;15.35;;;;;;;-142.57;100.00;56662.91;4954394;28;20174;-81
2023/12/02 02:13:57;;;;;;;31.77;16.10;;;;;;;-142.57;100.00;56537.63;4969731;28;20038;-84
2023/12/02 02:16:22;;;;;;;33.15;17.42;;;;;;;-142.57;100.00;56481.03;4963010;28;20097;-77
2023/12/02 02:18:48;;;;;;;31.90;16.17;;;;;;;-142.57;100.00;56436.56;4970909;28;20031;-83
2023/12/02 02:21:20;;;;;;;29.40;14.65;;;;;;;-142.57;100.00;56477.00;4967195;28;20529;-82
2023/12/02 02:23:46;;;;;;;19.40;10.95;;;;;;;-142.57;100.00;56452.75;4974624;28;20030;-86
2023/12/02 02:26:11;;;;;;;26.00;14.43;;;;;;;-142.57;100.00;56384.03;4981752;28;20031;-80
2023/12/02 02:28:37;;;;;;;26.10;14.15;;;;;;;-142.57;100.00;56400.19;4998502;28;20042;-82
2023/12/02 02:31:02;;;;;;;28.63;14.85;;;;;;;-142.57;100.00;56406.25;4999940;28;20050;-78
2023/12/02 02:33:31;;;;;;;23.05;14.07;;;;;;;-142.57;100.00;56341.59;4980988;28;20046;-83
2023/12/02 02:35:57;;;;;;;26.63;13.98;;;;;;;-142.57;100.00;56375.94;4976015;28;20061;-83
2023/12/02 02:38:23;;;;;;;24.48;13.95;;;;;;;-142.57;100.00;56345.63;4973870;28;20059;-85
2023/12/02 02:40:56;;;;;;;22.55;13.88;;;;;;;-142.57;100.00;56355.72;4967934;28;20647;-82
2023/12/02 02:43:21;;;;;;;25.95;13.05;;;;;;;-142.57;100.00;56367.84;4973481;28;20122;-79
2023/12/02 02:45:49;;;;;;;27.73;14.02;;;;;;;-142.57;100.00;56375.94;4965529;28;20501;-80
2023/12/02 02:48:15;;;;;;;20.98;13.45;;;;;;;-142.57;100.00;56307.22;4966142;28;20035;-81
2023/12/02 02:50:45;;;;;;;21.80;12.82;;;;;;;-142.57;100.00;56355.72;4962714;28;20510;-83
2023/12/02 02:53:11;;;;;;;21.40;13.00;;;;;;;-142.57;100.00;56359.78;4954954;28;20051;-82
2023/12/02 02:55:36;;;;;;;19.67;12.25;;;;;;;-142.57;100.00;56327.44;4970533;28;20033;-83
2023/12/02 02:58:02;;;;;;;22.50;13.05;;;;;;;-142.57;100.00;56384.03;4968138;28;20046;-81
2023/12/02 03:00:30;;;;;;;22.08;12.40;;;;;;;-142.57;100.00;56351.69;4970799;28;20027;-82
2023/12/02 03:02:56;;;;;;;20.30;12.13;;;;;;;-142.57;100.00;56351.69;4956995;28;20043;-80
2023/12/02 03:05:21;;;;;;;20.45;12.60;;;;;;;-142.57;100.00;56396.16;4977881;28;20022;-82
2023/12/02 03:07:49;;;;;;;22.95;12.45;;;;;;;-142.57;100.00;56375.94;4978605;28;20061;-83
2023/12/02 03:10:15;;;;;;;20.80;12.07;;;;;;;-142.57;100.00;56386.03;4976340;28;20055;-84
2023/12/02 03:12:40;;;;;;;19.40;11.75;;;;;;;-142.57;100.00;56369.88;4963747;28;20039;-79
2023/12/02 03:15:09;;;;;;;24.27;12.10;;;;;;;-142.57;100.00;56379.97;4983689;28;20049;-80
2023/12/02 03:17:40;;;;;;;18.27;10.80;;;;;;;-142.57;100.00;56321.38;4949886;28;20034;-82
2023/12/02 03:20:10;;;;;;;19.05;11.00;;;;;;;-142.57;100.00;56313.28;4977373;28;20031;-82
2023/12/02 03:22:35;;;;;;;19.60;11.57;;;;;;;-142.57;100.00;56311.28;4979336;28;20433;-82
2023/12/02 03:25:01;;;;;;;20.08;12.05;;;;;;;-142.57;100.00;56287.03;4958629;28;20070;-80
2023/12/02 03:27:29;;;;;;;19.05;12.27;;;;;;;-142.57;100.00;56315.31;4984695;28;20027;-80
2023/12/02 03:29:57;;;;;;;20.20;11.35;;;;;;;-142.57;100.00;56327.44;4988401;28;20042;-80
2023/12/02 03:32:23;;;;;;;20.17;12.10;;;;;;;-142.57;100.00;56278.94;4986161;28;20062;-80
2023/12/02 03:34:48;;;;;;;18.92;12.45;;;;;;;-142.57;100.00;56258.72;4973678;28;20505;-80
2023/12/02 03:37:14;;;;;;;17.08;11.18;;;;;;;-142.57;100.00;56266.81;4967787;28;20031;-80
2023/12/02 03:39:40;;;;;;;21.02;12.10;;;;;;;-142.57;100.00;56204.16;4964533;28;20073;-81
2023/12/02 03:42:05;;;;;;;22.05;12.13;;;;;;;-142.57;100.00;56206.19;4973958;28;20052;-82
2023/12/02 03:44:31;;;;;;;18.80;12.25;;;;;;;-142.57;100.00;56214.28;4975785;28;20042;-80
2023/12/02 03:46:56;;;;;;;21.98;12.38;;;;;;;-142.57;100.00;56177.91;4970777;28;20031;-80
2023/12/02 03:49:22;;;;;;;23.70;13.30;;;;;;;-142.57;100.00;56163.75;4970901;28;20042;-80
2023/12/02 03:51:51;;;;;;;23.48;14.07;;;;;;;-142.57;100.00;56206.19;4965790;28;20062;-80
2023/12/02 03:54:16;;;;;;;25.33;14.48;;;;;;;-142.57;100.00;56173.84;4965530;28;20094;-79
2023/12/02 03:56:44;;;;;;;21.63;13.38;;;;;;;-142.57;100.00;56185.97;4969072;28;20031;-81
2023/12/02 03:59:11;;;;;;;19.83;11.95;;;;;;;-142.57;100.00;56190.03;4963485;28;20035;-82
2023/12/02 04:01:39;;;;;;;21.23;12.85;;;;;;;-142.57;100.00;56161.72;4972829;28;20043;-80
2023/12/02 04:04:05;;;;;;;20.67;12.65;;;;;;;-142.57;100.00;56181.94;4961102;28;20034;-79
2023/12/02 04:06:30;;;;;;;23.10;13.88;;;;;;;-142.57;100.00;56157.69;4976611;28;20045;-82
2023/12/02 04:08:56;;;;;;;22.45;13.60;;;;;;;-142.57;100.00;56155.66;4955653;28;20057;-81
2023/12/02 04:11:27;;;;;;;22.10;12.80;;;;;;;-142.57;100.00;56177.91;4963205;28;20065;-80
2023/12/02 04:13:59;;;;;;;19.17;12.18;;;;;;;-142.57;100.00;56169.81;4953667;28;20049;-85
2023/12/02 04:16:25;;;;;;;13.20;8.38;;;;;;;-142.57;100.00;56121.31;4972078;28;20090;-83
2023/12/02 04:18:50;;;;;;;19.58;12.30;;;;;;;-142.57;100.00;56143.56;4954405;28;20037;-81
2023/12/02 04:21:26;;;;;;;21.55;12.70;;;;;;;-142.57;100.00;56131.44;4966346;28;20035;-83
2023/12/02 04:23:54;;;;;;;21.00;12.95;;;;;;;-142.57;100.00;56151.63;4972408;28;20061;-77
2023/12/02 04:26:23;;;;;;;20.80;13.02;;;;;;;-142.57;100.00;56109.19;4970577;28;20034;-83
2023/12/02 04:28:51;;;;;;;24.88;13.40;;;;;;;-142.57;100.00;56101.13;4947731;28;20042;-81
2023/12/02 04:31:20;;;;;;;25.92;13.52;;;;;;;-142.57;100.00;56113.25;4972695;28;20405;-79
2023/12/02 04:33:58;;;;;;;26.70;14.40;;;;;;;-142.57;100.00;56125.38;4975598;28;20493;-83
2023/12/02 04:36:26;;;;;;;31.50;15.13;;;;;;;-142.57;100.00;56143.56;4971931;28;20038;-85
2023/12/02 04:38:51;;;;;;;28.48;15.27;;;;;;;-142.57;100.00;56129.41;4970722;28;20042;-83
2023/12/02 04:41:17;;;;;;;29.98;14.77;;;;;;;-142.57;100.00;56157.69;4968984;28;20039;-80
2023/12/02 04:43:44;;;;;;;28.52;14.57;;;;;;;-142.57;100.00;56131.44;4994932;28;20097;-79
2023/12/02 04:46:12;;;;;;;27.08;15.20;;;;;;;-142.57;100.00;56133.44;4992542;28;20047;-81
2023/12/02 04:48:37;;;;;;;30.67;15.38;;;;;;;-142.57;100.00;56151.63;4968557;28;20028;-85
2023/12/02 04:51:10;;;;;;;30.73;15.93;;;;;;;-142.57;100.00;56175.88;4943190;28;20489;-84
2023/12/02 04:53:36;;;;;;;30.77;15.30;;;;;;;-142.57;100.00;56161.72;4969282;28;20034;-84
2023/12/02 04:56:01;;;;;;;32.90;16.75;;;;;;;-142.57;100.00;56181.94;4973344;28;20038;-81
2023/12/02 04:58:28;;;;;;;34.22;17.05;;;;;;;-142.57;100.00;56181.94;4979049;28;20027;-85
2023/12/02 05:00:53;;;;;;;37.35;17.15;;;;;;;-142.57;100.00;56236.50;4978954;28;20061;-85
2023/12/02 05:03:18;;;;;;;39.90;18.50;;;;;;;-142.57;100.00;56202.16;4969113;28;20118;-82
2023/12/02 05:05:44;;;;;;;39.65;18.15;;;;;;;-142.57;100.00;56222.34;4967645;28;20090;-84
2023/12/02 05:08:13;;;;;;;47.10;19.55;;;;;;;-142.57;100.00;56214.28;4960784;28;20028;-81
2023/12/02 05:10:38;;;;;;;43.85;19.67;;;;;;;-142.57;100.00;56258.72;4969027;28;20106;-84
2023/12/02 05:13:04;;;;;;;49.38;21.55;;;;;;;-142.57;100.00;56254.69;4970424;28;20050;-83
2023/12/02 05:15:32;;;;;;;54.17;21.95;;;;;;;-142.57;100.00;56323.41;4978771;28;20038;-82
2023/12/02 05:17:57;;;;;;;55.92;22.50;;;;;;;-142.57;100.00;56377.97;4992651;28;20112;-82
2023/12/02 05:20:23;;;;;;;47.58;22.52;;;;;;;-142.57;100.00;56404.22;4984544;28;20034;-81
2023/12/02 05:22:48;;;;;;;54.75;21.63;;;;;;;-142.57;100.00;56434.56;4980989;28;20049;-81
2023/12/02 05:25:15;;;;;;;64.00;23.15;;;;;;;-142.57;100.00;56505.28;4974298;28;20493;-80
2023/12/02 05:27:41;;;;;;;58.47;22.80;;;;;;;-142.57;100.00;56485.06;4973448;28;20130;-81
2023/12/02 05:30:13;;;;;;;55.10;23.30;;;;;;;-142.57;100.00;56432.53;4977926;28;20451;-79
2023/12/02 05:32:42;;;;;;;63.90;23.70;;;;;;;-142.57;100.00;56412.31;4968914;28;20422;-79
2023/12/02 05:35:11;;;;;;;61.30;24.45;;;;;;;-142.57;100.00;56434.56;4961838;28;20486;-80
2023/12/02 05:37:37;;;;;;;51.28;21.10;;;;;;;-142.57;100.00;56440.59;4958386;28;20033;-83
2023/12/02 05:40:04;;;;;;;52.65;22.90;;;;;;;-142.57;100.00;56485.06;4962679;28;20121;-81
2023/12/02 05:42:29;;;;;;;53.47;23.70;;;;;;;-142.57;100.00;56452.75;4961020;28;20043;-84
2023/12/02 05:44:55;;;;;;;52.53;22.40;;;;;;;-142.57;100.00;56400.19;4978065;28;20508;-81
2023/12/02 05:47:21;;;;;;;48.63;21.20;;;;;;;-142.57;100.00;56458.81;4968429;28;20225;-85
2023/12/02 05:49:46;;;;;;;56.83;23.55;;;;;;;-142.57;100.00;56416.34;4960996;28;20046;-85
2023/12/02 05:52:12;;;;;;;53.53;24.17;;;;;;;-142.57;100.00;56448.69;4958485;28;20034;-83
2023/12/02 05:54:37;;;;;;;49.25;22.52;;;;;;;-142.57;100.00;56406.25;4958568;28;20170;-82
2023/12/02 05:57:03;;;;;;;54.67;23.08;;;;;;;-142.57;100.00;56398.16;4958635;28;20027;-84
2023/12/02 05:59:28;;;;;;;51.00;22.63;;;;;;;-142.57;100.00;56436.56;4967876;28;20030;-82
2023/12/02 06:01:54;;;;;;;51.65;23.73;;;;;;;-142.57;100.00;56424.44;4969419;28;20059;-83
2023/12/02 06:04:19;;;;;;;52.05;22.92;;;;;;;-142.57;100.00;56517.41;4958478;28;20130;-82
2023/12/02 06:06:46;;;;;;;62.80;24.27;;;;;;;-142.57;100.00;56495.19;4962441;28;20042;-80
2023/12/02 06:09:12;;;;;;;54.97;23.38;;;;;;;-142.57;100.00;56539.63;4958581;28;20397;-84
2023/12/02 06:11:38;;;;;;;70.00;24.88;;;;;;;-142.57;100.00;56507.31;4958092;28;20043;-83
2023/12/02 06:14:05;;;;;;;58.72;23.63;;;;;;;-142.57;100.00;56571.97;4958908;28;20058;-86
2023/12/02 06:16:31;;;;;;;73.45;25.70;;;;;;;-142.57;100.00;56565.91;4947780;28;20699;-83
2023/12/02 06:18:57;;;;;;;59.25;26.23;;;;;;;-142.57;100.00;56620.47;4958597;28;20090;-82
2023/12/02 06:21:22;;;;;;;55.67;24.63;;;;;;;-142.57;100.00;56626.53;4957711;28;20053;-82
2023/12/02 06:23:48;;;;;;;79.32;24.83;;;;;;;-142.57;100.00;56658.88;4961323;28;20028;-83
2023/12/02 06:26:22;;;;;;;68.10;25.35;;;;;;;-142.57;100.00;56723.53;4958072;28;20062;-84
2023/12/02 06:28:51;;;;;;;60.65;24.50;;;;;;;-142.57;100.00;56768.00;4945637;28;20130;-86
2023/12/02 06:31:17;;;;;;;59.45;25.25;;;;;;;-142.57;100.00;56790.25;4964359;28;20063;-85
2023/12/02 06:33:43;;;;;;;58.55;25.40;;;;;;;-142.57;100.00;56804.38;4962323;28;20035;-83
2023/12/02 06:36:09;;;;;;;59.03;25.63;;;;;;;-142.57;100.00;56770.03;4966640;28;20086;-87
2023/12/02 06:38:41;;;;;;;64.47;26.60;;;;;;;-142.57;100.00;56766.00;4978101;28;20042;-87
2023/12/02 06:41:07;;;;;;;140.20;26.63;;;;;;;-142.57;100.00;56620.47;4975416;28;20098;-85
2023/12/02 06:43:34;;;;;;;72.15;26.77;;;;;;;-142.57;100.00;56679.09;4986637;28;20057;-83
2023/12/02 06:46:00;;;;;;;110.93;25.70;;;;;;;-142.57;100.00;56654.84;4960839;28;20023;-82
2023/12/02 06:48:26;;;;;;;64.95;26.02;;;;;;;-142.57;100.00;56679.09;4973702;28;20134;-89
2023/12/02 06:50:52;;;;;;;63.35;27.70;;;;;;;-142.57;100.00;56638.66;4955925;28;20047;-91
2023/12/02 06:53:17;;;;;;;63.58;26.83;;;;;;;-142.57;100.00;56598.25;4972888;28;20070;-85
2023/12/02 06:55:43;;;;;;;69.60;24.88;;;;;;;-142.57;100.00;56636.66;4974249;28;20070;-86
2023/12/02 06:58:09;;;;;;;70.38;24.73;;;;;;;-142.57;100.00;56610.38;4980031;28;20026;-85
2023/12/02 07:00:35;;;;;;;67.53;25.63;;;;;;;-142.57;100.00;56569.94;4988653;28;20027;-85
2023/12/02 07:03:00;;;;;;;210.50;26.33;;;;;;;-142.57;100.00;56547.72;4960560;28;20035;-86
2023/12/02 07:05:26;;;;;;;95.28;22.67;;;;;;;-142.57;100.00;56529.53;4949192;28;20057;-87
2023/12/02 07:07:52;;;;;;;160.25;24.13;;;;;;;-142.57;100.00;56529.53;4967026;28;20039;-85
2023/12/02 07:10:18;;;;;;;126.75;22.55;;;;;;;-142.57;100.00;56474.97;4977887;28;20090;-89
2023/12/02 07:12:44;;;;;;;195.52;23.92;;;;;;;-142.57;100.00;56357.75;4962363;28;20038;-84
2023/12/02 07:15:18;;;;;;;65.45;20.67;;;;;;;-142.57;100.00;56355.72;4969585;28;20031;-85
2023/12/02 07:17:43;;;;;;;196.25;23.38;;;;;;;-142.57;100.00;56331.47;4967368;28;20027;-88
2023/12/02 07:20:14;;;;;;;211.05;22.48;;;;;;;-142.57;100.00;56303.19;4974289;28;20716;-85
2023/12/02 07:22:40;;;;;;;147.25;21.85;;;;;;;-142.57;100.00;56351.69;4972718;28;20050;-87
2023/12/02 07:25:08;;;;;;;231.38;26.23;;;;;;;-142.57;100.00;56464.84;4950490;28;20391;-85
2023/12/02 07:27:43;;;;;;;189.07;26.63;;;;;;;-142.57;100.00;56610.38;4966662;28;20038;-84
2023/12/02 07:30:12;;;;;;;74.50;24.42;;;;;;;-142.57;100.00;56937.78;4979196;28;20027;-87
2023/12/02 07:32:53;;;;;;;96.97;23.98;;;;;;;-142.57;100.00;57111.59;4959401;28;20057;-85
2023/12/02 07:35:32;;;;;;;158.55;26.55;;;;;;;-142.57;100.00;57111.59;4938980;28;20125;-86
2023/12/02 07:38:03;;;;;;;87.95;30.00;;;;;;;-142.57;100.00;57220.75;4978367;28;20055;-83
2023/12/02 07:41:01;;;;;;;165.63;31.88;;;;;;;-142.57;100.00;57552.25;4955205;28;20043;-87
2023/12/02 07:43:27;;;;;;;92.95;33.65;;;;;;;-142.57;100.00;57437.03;4979160;28;20114;-85
2023/12/02 07:45:52;;;;;;;101.63;32.42;;;;;;;-142.57;100.00;57426.94;4943690;28;20111;-83
2023/12/02 07:48:18;;;;;;;102.70;32.47;;;;;;;-142.57;100.00;57519.91;4971231;28;20127;-86
2023/12/02 07:50:47;;;;;;;77.00;29.98;;;;;;;-142.57;100.00;57665.47;4971271;28;20031;-87
2023/12/02 07:53:36;;;;;;;87.45;32.42;;;;;;;-142.57;100.00;57584.59;4981697;28;20039;-88
2023/12/02 07:56:24;;;;;;;65.72;28.65;;;;;;;-142.57;100.00;57722.06;4960086;28;20035;-85
2023/12/02 07:58:54;;;;;;;74.95;29.35;;;;;;;-142.57;100.00;57418.84;4968962;28;20062;-87
2023/12/02 08:01:24;;;;;;;65.85;30.42;;;;;;;-142.57;100.00;57414.81;4966452;28;20039;-87
2023/12/02 08:03:52;;;;;;;76.35;28.33;;;;;;;-142.57;100.00;57325.88;4975293;28;20034;-88
2023/12/02 08:06:17;;;;;;;67.63;27.55;;;;;;;-142.57;100.00;57461.28;4968434;28;20038;-85
2023/12/02 08:08:43;;;;;;;62.92;26.92;;;;;;;-142.57;100.00;57515.88;4959201;28;20035;-84
2023/12/02 08:11:08;;;;;;;54.22;26.15;;;;;;;-142.57;100.00;57497.69;4962637;28;20049;-83
2023/12/02 08:13:34;;;;;;;56.10;26.52;;;;;;;-142.57;100.00;57372.34;4960813;28;20043;-83
2023/12/02 08:15:59;;;;;;;59.13;27.02;;;;;;;-142.57;100.00;57255.13;4961124;28;20101;-85
2023/12/02 08:18:26;;;;;;;55.55;25.98;;;;;;;-142.57;100.00;57378.41;4951306;28;20394;-85
2023/12/02 08:20:51;;;;;;;69.15;28.23;;;;;;;-142.57;100.00;57277.34;4967551;28;20035;-84
2023/12/02 08:23:17;;;;;;;61.50;27.00;;;;;;;-142.57;100.00;57439.06;4966095;28;20027;-82
2023/12/02 08:25:42;;;;;;;62.38;28.70;;;;;;;-142.57;100.00;57487.56;4961938;28;20047;-85
2023/12/02 08:28:08;;;;;;;71.32;29.80;;;;;;;-142.57;100.00;57479.50;4962509;28;20042;-80
2023/12/02 08:30:36;;;;;;;74.22;32.33;;;;;;;-142.57;100.00;57487.56;4974407;28;20485;-85
2023/12/02 08:33:06;;;;;;;79.40;31.92;;;;;;;-142.57;100.00;57556.31;4969471;28;20062;-84
2023/12/02 08:35:31;;;;;;;81.90;33.38;;;;;;;-142.57;100.00;57461.28;4963876;28;20406;-87
2023/12/02 08:37:57;;;;;;;80.38;33.33;;;;;;;-142.57;100.00;57390.56;4963235;28;20022;-83
2023/12/02 08:40:23;;;;;;;83.10;31.27;;;;;;;-142.57;100.00;57240.97;4955361;28;20051;-86
2023/12/02 08:42:49;;;;;;;81.50;32.38;;;;;;;-142.57;100.00;57168.19;4954292;28;20035;-86
2023/12/02 08:45:23;;;;;;;72.30;30.15;;;;;;;-142.57;100.00;57158.09;4974313;28;20078;-86
2023/12/02 08:47:58;;;;;;;75.03;30.15;;;;;;;-142.57;100.00;57123.72;4947579;28;20403;-84
2023/12/02 08:50:23;;;;;;;75.93;30.70;;;;;;;-142.57;100.00;57265.22;4976023;28;20053;-86
2023/12/02 08:52:52;;;;;;;69.85;30.02;;;;;;;-142.57;100.00;57259.16;4968390;28;20076;-83
2023/12/02 08:55:31;;;;;;;71.22;30.13;;;;;;;-142.57;100.00;57083.31;4970299;28;20038;-88
2023/12/02 08:57:57;;;;;;;71.00;28.75;;;;;;;-142.57;100.00;57178.31;4980852;28;20034;-84
2023/12/02 09:00:30;;;;;;;72.15;30.25;;;;;;;-142.57;100.00;57226.81;4966708;28;20047;-80
2023/12/02 09:02:56;;;;;;;70.55;31.63;;;;;;;-142.57;100.00;57123.72;4969467;28;20518;-82
2023/12/02 09:05:25;;;;;;;56.38;28.23;;;;;;;-142.57;100.00;57026.72;4967147;28;20098;-81
2023/12/02 09:07:53;;;;;;;54.05;26.40;;;;;;;-142.57;100.00;56978.22;4948231;28;20038;-83
2023/12/02 09:10:23;;;;;;;54.65;26.25;;;;;;;-142.57;100.00;56925.66;4962090;28;20062;-83
2023/12/02 09:12:50;;;;;;;55.40;26.50;;;;;;;-142.57;100.00;56743.75;4982745;28;20054;-86
2023/12/02 09:15:19;;;;;;;57.00;26.17;;;;;;;-142.57;100.00;56709.41;4987809;28;20027;-85
2023/12/02 09:18:14;;;;;;;48.30;24.73;;;;;;;-142.57;100.00;56715.47;4978604;28;20029;-85
2023/12/02 09:20:49;;;;;;;46.00;23.50;;;;;;;-142.57;100.00;56697.28;4966519;28;20046;-85
2023/12/02 09:23:20;;;;;;;42.35;22.42;;;;;;;-142.57;100.00;56594.19;4951418;28;20043;-81
2023/12/02 09:25:48;;;;;;;44.85;22.45;;;;;;;-142.57;100.00;56658.88;4976402;28;20089;-86
2023/12/02 09:28:21;;;;;;;40.28;21.27;;;;;;;-142.57;100.00;56666.97;4967514;28;20026;-82
2023/12/02 09:30:58;;;;;;;33.65;19.05;;;;;;;-142.57;100.00;56650.78;4973984;28;20034;-83
2023/12/02 09:33:27;;;;;;;35.35;20.10;;;;;;;-142.57;100.00;56578.03;4973958;28;20043;-83
2023/12/02 09:36:04;;;;;;;37.03;19.88;;;;;;;-142.57;100.00;56610.38;4969484;28;20464;-84
2023/12/02 09:38:33;;;;;;;40.92;20.95;;;;;;;-142.57;100.00;56646.75;4964301;28;20162;-85
2023/12/02 09:41:36;;;;;;;36.28;19.95;;;;;;;-142.57;100.00;56598.25;4972968;28;20035;-84
2023/12/02 09:44:47;;;;;;;36.67;19.60;;;;;;;-142.57;100.00;56590.16;4947906;28;20042;-84
2023/12/02 09:47:22;;;;;;;33.15;18.33;;;;;;;-142.57;100.00;56618.44;4956851;28;20042;-86
2023/12/02 09:49:51;;;;;;;34.58;18.58;;;;;;;-142.57;100.00;56624.53;4953825;28;20059;-83
2023/12/02 09:52:35;;;;;;;34.75;19.55;;;;;;;-142.57;100.00;56642.72;4966470;28;20117;-82
2023/12/02 09:55:14;;;;;;;42.28;21.35;;;;;;;-142.57;100.00;56664.94;4969370;28;20039;-84
2023/12/02 09:57:57;;;;;;;46.35;23.98;;;;;;;-142.57;100.00;56731.63;4968931;28;20023;-82
2023/12/02 10:00:49;;;;;;;47.72;25.98;;;;;;;-142.57;100.00;56721.53;4959862;28;20510;-85
2023/12/02 10:03:24;;;;;;;47.75;25.77;;;;;;;-142.57;100.00;56747.81;4956514;28;20031;-83
2023/12/02 10:06:11;;;;;;;38.10;19.55;;;;;;;-142.57;100.00;56814.50;4963472;28;20039;-84
2023/12/02 10:09:07;;;;;;;15.10;9.15;;;;;;;-142.57;100.00;56650.78;4969555;28;20027;-85
2023/12/02 10:12:00;;;;;;;8.70;4.47;;;;;;;-142.57;100.00;56472.94;4944497;28;20043;-84
2023/12/02 10:14:25;;;;;;;;;;;;;;;-142.57;100.00;56424.44;4972119;28;20126;-82
2023/12/02 10:16:53;;;;;;;5.53;2.53;;;;;;;-142.57;100.00;56410.28;4975583;28;19952;-80
2023/12/02 10:19:34;;;;;;;2.08;1.30;;;;;;;-142.57;100.00;56448.69;4947447;28;20490;-82
2023/12/02 10:22:02;;;;;;;1.15;0.70;;;;;;;-142.57;100.00;56396.16;4967608;28;20078;-80
2023/12/02 10:25:07;;;;;;;0.75;0.63;;;;;;;-142.57;100.00;56416.34;4964969;28;20094;-83
2023/12/02 10:27:38;;;;;;;2.08;0.40;;;;;;;-142.57;100.00;56436.56;4917180;29;20050;-84
2023/12/02 10:30:12;;;;;;;1.15;0.50;;;;;;;-142.57;100.00;56402.22;4935561;29;20466;-83
2023/12/02 10:33:00;;;;;;;1.20;0.65;;;;;;;-142.57;100.00;56384.03;4936385;29;20062;-80
2023/12/02 10:35:35;;;;;;;0.80;0.57;;;;;;;-142.57;100.00;56357.75;4947490;29;20119;-81
2023/12/02 10:38:24;;;;;;;0.55;0.50;;;;;;;-142.57;100.00;56384.03;4921443;29;20175;-81
2023/12/02 10:41:04;;;;;;;0.60;0.50;;;;;;;-142.57;100.00;56388.06;4937109;29;20476;-82
2023/12/02 10:43:44;;;;;;;1.50;0.80;;;;;;;-142.57;100.00;56363.81;4976485;28;20605;-82
2023/12/02 10:46:11;;;;;;;2.67;0.80;;;;;;;-142.57;100.00;56394.13;4979156;28;20042;-83
2023/12/02 10:48:39;;;;;;;0.90;0.80;;;;;;;-142.57;100.00;56371.91;4986379;28;20063;-84
2023/12/02 10:51:07;;;;;;;0.85;0.60;;;;;;;-142.57;100.00;56396.16;4944423;28;20035;-83
2023/12/02 10:53:36;;;;;;;0.60;0.60;;;;;;;-142.57;100.00;56424.44;4976651;28;20505;-87
2023/12/02 11:01:56;;;;;;;1.17;0.57;;;;;;;-142.57;100.00;56446.66;4970577;28;20101;-81
2023/12/02 11:04:33;;;;;;;1.00;0.50;;;;;;;-142.57;100.00;56509.31;4933734;28;20043;-83
2023/12/02 11:07:03;;;;;;;0.70;0.40;;;;;;;-142.57;100.00;56483.06;4952686;28;20059;-82
2023/12/02 11:09:59;;;;;;;3.47;0.47;;;;;;;-142.57;100.00;56424.44;4940774;28;20039;-81